sensor_id;sensor_type;location;lat;lon;timestamp;pressure;altitude;pressure_sealevel;temperature;humidity
78210;BME280;67485;48.816;9.930;2023-02-12T00:01:53;98759.06;;;3.14;82.80
78210;BME280;67485;48.816;9.930;2023-02-12T00:04:18;98747.97;;;3.17;82.34
78210;BME280;67485;48.816;9.930;2023-02-12T00:06:44;98754.88;;;3.18;82.82
78210;BME280;67485;48.816;9.930;2023-02-12T00:09:10;98763.53;;;3.18;82.33
78210;BME280;67485;48.816;9.930;2023-02-12T00:11:35;98759.34;;;3.22;82.69
78210;BME280;67485;48.816;9.930;2023-02-12T00:14:01;98759.41;;;3.23;82.21
78210;BME280;67485;48.816;9.930;2023-02-12T00:16:28;98757.75;;;3.26;82.68
78210;BME280;67485;48.816;9.930;2023-02-12T00:18:55;98759.41;;;3.23;82.12
78210;BME280;67485;48.816;9.930;2023-02-12T00:21:22;98753.38;;;3.24;82.34
78210;BME280;67485;48.816;9.930;2023-02-12T00:23:48;98749.06;;;3.25;82.36
78210;BME280;67485;48.816;9.930;2023-02-12T00:26:19;98746.59;;;3.28;81.62
78210;BME280;67485;48.816;9.930;2023-02-12T00:28:48;98750.09;;;3.30;81.75
78210;BME280;67485;48.816;9.930;2023-02-12T00:31:20;98752.81;;;3.33;81.23
78210;BME280;67485;48.816;9.930;2023-02-12T00:33:47;98746.84;;;3.36;81.19
78210;BME280;67485;48.816;9.930;2023-02-12T00:36:16;98750.72;;;3.49;81.93
78210;BME280;67485;48.816;9.930;2023-02-12T00:38:43;98745.66;;;3.52;82.48
78210;BME280;67485;48.816;9.930;2023-02-12T00:41:09;98757.66;;;3.50;82.40
78210;BME280;67485;48.816;9.930;2023-02-12T00:43:35;98758.13;;;3.38;82.50
78210;BME280;67485;48.816;9.930;2023-02-12T00:46:01;98763.88;;;3.29;82.30
78210;BME280;67485;48.816;9.930;2023-02-12T00:48:27;98765.78;;;3.33;83.53
78210;BME280;67485;48.816;9.930;2023-02-12T00:50:53;98762.72;;;3.47;82.86
78210;BME280;67485;48.816;9.930;2023-02-12T00:53:19;98767.13;;;3.49;82.47
78210;BME280;67485;48.816;9.930;2023-02-12T00:55:45;98759.81;;;3.36;82.81
78210;BME280;67485;48.816;9.930;2023-02-12T00:58:10;98757.84;;;3.29;82.92
78210;BME280;67485;48.816;9.930;2023-02-12T01:00:36;98754.09;;;3.20;83.07
78210;BME280;67485;48.816;9.930;2023-02-12T01:03:02;98753.88;;;3.14;83.87
78210;BME280;67485;48.816;9.930;2023-02-12T01:05:31;98751.63;;;3.23;83.55
78210;BME280;67485;48.816;9.930;2023-02-12T01:07:57;98753.53;;;3.29;83.09
78210;BME280;67485;48.816;9.930;2023-02-12T01:10:23;98755.41;;;3.33;83.43
78210;BME280;67485;48.816;9.930;2023-02-12T01:12:49;98754.63;;;3.36;83.48
78210;BME280;67485;48.816;9.930;2023-02-12T01:15:16;98756.38;;;3.37;83.52
78210;BME280;67485;48.816;9.930;2023-02-12T01:17:42;98752.59;;;3.27;83.28
78210;BME280;67485;48.816;9.930;2023-02-12T01:20:11;98749.59;;;3.15;83.19
78210;BME280;67485;48.816;9.930;2023-02-12T01:22:38;98761.63;;;3.13;83.62
78210;BME280;67485;48.816;9.930;2023-02-12T01:25:04;98761.63;;;3.13;83.50
78210;BME280;67485;48.816;9.930;2023-02-12T01:27:31;98769.28;;;3.10;83.88
78210;BME280;67485;48.816;9.930;2023-02-12T01:29:57;98766.78;;;3.13;83.64
78210;BME280;67485;48.816;9.930;2023-02-12T01:32:23;98766.66;;;3.08;84.50
78210;BME280;67485;48.816;9.930;2023-02-12T01:34:49;98761.53;;;3.10;84.24
78210;BME280;67485;48.816;9.930;2023-02-12T01:37:14;98768.47;;;3.11;83.88
78210;BME280;67485;48.816;9.930;2023-02-12T01:39:40;98760.91;;;3.17;83.41
78210;BME280;67485;48.816;9.930;2023-02-12T01:42:06;98764.41;;;3.19;83.39
78210;BME280;67485;48.816;9.930;2023-02-12T01:44:33;98757.34;;;3.13;84.31
78210;BME280;67485;48.816;9.930;2023-02-12T01:47:04;98750.94;;;3.03;85.34
78210;BME280;67485;48.816;9.930;2023-02-12T01:49:40;98759.53;;;3.02;84.85
78210;BME280;67485;48.816;9.930;2023-02-12T01:52:16;98760.28;;;2.98;85.79
78210;BME280;67485;48.816;9.930;2023-02-12T01:54:46;98754.97;;;2.95;85.92
78210;BME280;67485;48.816;9.930;2023-02-12T01:57:13;98756.22;;;3.06;85.74
78210;BME280;67485;48.816;9.930;2023-02-12T01:59:42;98757.91;;;3.04;85.79
78210;BME280;67485;48.816;9.930;2023-02-12T02:02:10;98759.28;;;3.20;85.92
78210;BME280;67485;48.816;9.930;2023-02-12T02:04:40;98753.03;;;3.14;86.21
78210;BME280;67485;48.816;9.930;2023-02-12T02:07:08;98753.75;;;3.10;85.65
78210;BME280;67485;48.816;9.930;2023-02-12T02:09:36;98751.25;;;3.13;85.61
78210;BME280;67485;48.816;9.930;2023-02-12T02:12:02;98749.69;;;3.18;84.56
78210;BME280;67485;48.816;9.930;2023-02-12T02:14:48;98748.63;;;3.11;85.03
78210;BME280;67485;48.816;9.930;2023-02-12T02:18:06;98762.88;;;2.98;85.50
78210;BME280;67485;48.816;9.930;2023-02-12T02:31:17;98743.56;;;2.90;86.77
78210;BME280;67485;48.816;9.930;2023-02-12T02:36:24;98735.41;;;3.03;86.10
78210;BME280;67485;48.816;9.930;2023-02-12T02:38:59;98735.75;;;3.14;86.05
78210;BME280;67485;48.816;9.930;2023-02-12T02:44:36;98730.31;;;3.06;86.79
78210;BME280;67485;48.816;9.930;2023-02-12T02:47:06;98729.03;;;2.94;86.96
78210;BME280;67485;48.816;9.930;2023-02-12T02:49:40;98724.63;;;2.91;87.91
78210;BME280;67485;48.816;9.930;2023-02-12T02:52:11;98728.06;;;2.91;87.89
78210;BME280;67485;48.816;9.930;2023-02-12T02:54:48;98731.66;;;2.95;88.37
78210;BME280;67485;48.816;9.930;2023-02-12T02:57:21;98730.75;;;2.93;87.40
78210;BME280;67485;48.816;9.930;2023-02-12T02:59:57;98735.81;;;2.90;87.30
78210;BME280;67485;48.816;9.930;2023-02-12T03:02:31;98731.31;;;2.84;87.49
78210;BME280;67485;48.816;9.930;2023-02-12T03:05:07;98734.84;;;2.88;87.41
78210;BME280;67485;48.816;9.930;2023-02-12T03:07:37;98732.19;;;2.85;88.33
78210;BME280;67485;48.816;9.930;2023-02-12T03:12:43;98725.97;;;2.80;89.00
78210;BME280;67485;48.816;9.930;2023-02-12T03:15:17;98727.38;;;2.71;88.93
78210;BME280;67485;48.816;9.930;2023-02-12T03:17:47;98739.72;;;2.79;88.50
78210;BME280;67485;48.816;9.930;2023-02-12T03:20:27;98742.44;;;2.82;88.19
78210;BME280;67485;48.816;9.930;2023-02-12T03:22:57;98745.03;;;2.82;88.51
78210;BME280;67485;48.816;9.930;2023-02-12T03:25:33;98744.97;;;2.80;88.43
78210;BME280;67485;48.816;9.930;2023-02-12T03:28:10;98738.91;;;2.80;88.03
78210;BME280;67485;48.816;9.930;2023-02-12T03:36:55;98752.84;;;2.83;88.81
78210;BME280;67485;48.816;9.930;2023-02-12T03:44:55;98754.97;;;2.69;89.57
78210;BME280;67485;48.816;9.930;2023-02-12T03:47:26;98760.72;;;2.62;90.26
78210;BME280;67485;48.816;9.930;2023-02-12T03:50:08;98764.41;;;2.69;90.78
78210;BME280;67485;48.816;9.930;2023-02-12T03:52:35;98756.69;;;2.70;90.24
78210;BME280;67485;48.816;9.930;2023-02-12T03:55:02;98756.91;;;2.76;89.30
78210;BME280;67485;48.816;9.930;2023-02-12T03:57:32;98758.81;;;2.81;88.94
78210;BME280;67485;48.816;9.930;2023-02-12T04:00:04;98761.41;;;2.81;88.99
78210;BME280;67485;48.816;9.930;2023-02-12T04:02:40;98758.13;;;2.86;88.43
78210;BME280;67485;48.816;9.930;2023-02-12T04:05:07;98762.53;;;2.89;88.12
78210;BME280;67485;48.816;9.930;2023-02-12T04:07:34;98768.38;;;2.83;89.20
78210;BME280;67485;48.816;9.930;2023-02-12T04:10:01;98771.81;;;2.82;89.26
78210;BME280;67485;48.816;9.930;2023-02-12T04:18:06;98767.00;;;2.69;90.09
78210;BME280;67485;48.816;9.930;2023-02-12T04:23:27;98761.44;;;2.82;89.13
78210;BME280;67485;48.816;9.930;2023-02-12T04:28:42;98780.94;;;2.72;90.29
78210;BME280;67485;48.816;9.930;2023-02-12T04:33:57;98783.31;;;2.66;91.33
78210;BME280;67485;48.816;9.930;2023-02-12T04:36:32;98785.16;;;2.70;91.46
78210;BME280;67485;48.816;9.930;2023-02-12T04:39:02;98786.28;;;2.77;90.69
78210;BME280;67485;48.816;9.930;2023-02-12T04:41:30;98783.19;;;2.87;89.78
78210;BME280;67485;48.816;9.930;2023-02-12T04:43:56;98785.00;;;2.90;89.49
78210;BME280;67485;48.816;9.930;2023-02-12T04:46:21;98781.28;;;2.82;90.20
78210;BME280;67485;48.816;9.930;2023-02-12T04:48:53;98784.53;;;2.76;90.28
78210;BME280;67485;48.816;9.930;2023-02-12T04:51:19;98787.72;;;2.69;90.62
78210;BME280;67485;48.816;9.930;2023-02-12T04:53:45;98784.25;;;2.68;91.31
78210;BME280;67485;48.816;9.930;2023-02-12T04:56:11;98786.13;;;2.72;91.48
78210;BME280;67485;48.816;9.930;2023-02-12T04:58:38;98787.88;;;2.73;91.07
78210;BME280;67485;48.816;9.930;2023-02-12T05:01:04;98784.47;;;2.74;91.26
78210;BME280;67485;48.816;9.930;2023-02-12T05:03:30;98781.72;;;2.70;91.39
78210;BME280;67485;48.816;9.930;2023-02-12T05:06:01;98784.03;;;2.62;92.20
78210;BME280;67485;48.816;9.930;2023-02-12T05:08:27;98791.53;;;2.54;92.19
78210;BME280;67485;48.816;9.930;2023-02-12T05:10:53;98785.34;;;2.51;92.81
78210;BME280;67485;48.816;9.930;2023-02-12T05:13:18;98781.94;;;2.52;93.30
78210;BME280;67485;48.816;9.930;2023-02-12T05:15:44;98773.44;;;2.56;93.37
78210;BME280;67485;48.816;9.930;2023-02-12T05:18:09;98783.09;;;2.60;93.34
78210;BME280;67485;48.816;9.930;2023-02-12T05:20:35;98785.56;;;2.57;93.54
78210;BME280;67485;48.816;9.930;2023-02-12T05:23:01;98793.25;;;2.55;93.80
78210;BME280;67485;48.816;9.930;2023-02-12T05:25:26;98788.16;;;2.57;93.68
78210;BME280;67485;48.816;9.930;2023-02-12T05:27:52;98785.56;;;2.57;93.95
78210;BME280;67485;48.816;9.930;2023-02-12T05:30:18;98783.00;;;2.57;93.99
78210;BME280;67485;48.816;9.930;2023-02-12T05:32:44;98782.38;;;2.64;93.77
78210;BME280;67485;48.816;9.930;2023-02-12T05:35:09;98787.56;;;2.64;93.67
78210;BME280;67485;48.816;9.930;2023-02-12T05:37:35;98782.03;;;2.55;93.77
78210;BME280;67485;48.816;9.930;2023-02-12T05:40:03;98782.38;;;2.64;94.41
78210;BME280;67485;48.816;9.930;2023-02-12T05:42:29;98781.53;;;2.65;94.11
78210;BME280;67485;48.816;9.930;2023-02-12T05:44:55;98776.22;;;2.61;93.96
78210;BME280;67485;48.816;9.930;2023-02-12T05:47:20;98781.50;;;2.64;94.20
78210;BME280;67485;48.816;9.930;2023-02-12T05:49:46;98795.25;;;2.63;93.77
78210;BME280;67485;48.816;9.930;2023-02-12T05:52:12;98790.41;;;2.48;93.76
78210;BME280;67485;48.816;9.930;2023-02-12T05:54:37;98794.56;;;2.44;93.99
78210;BME280;67485;48.816;9.930;2023-02-12T05:57:03;98791.06;;;2.42;94.54
78210;BME280;67485;48.816;9.930;2023-02-12T05:59:30;98795.47;;;2.45;94.94
78210;BME280;67485;48.816;9.930;2023-02-12T06:01:56;98796.69;;;2.54;94.73
78210;BME280;67485;48.816;9.930;2023-02-12T06:04:25;98792.38;;;2.55;95.06
78210;BME280;67485;48.816;9.930;2023-02-12T06:06:52;98799.56;;;2.62;94.46
78210;BME280;67485;48.816;9.930;2023-02-12T06:09:18;98790.97;;;2.63;94.70
78210;BME280;67485;48.816;9.930;2023-02-12T06:11:44;98792.63;;;2.61;95.14
78210;BME280;67485;48.816;9.930;2023-02-12T06:14:13;98796.16;;;2.63;95.28
78210;BME280;67485;48.816;9.930;2023-02-12T06:16:39;98794.38;;;2.62;95.56
78210;BME280;67485;48.816;9.930;2023-02-12T06:19:05;98795.94;;;2.57;95.64
78210;BME280;67485;48.816;9.930;2023-02-12T06:21:32;98793.13;;;2.51;96.67
78210;BME280;67485;48.816;9.930;2023-02-12T06:23:58;98795.94;;;2.57;97.01
78210;BME280;67485;48.816;9.930;2023-02-12T06:26:24;98790.97;;;2.63;96.98
78210;BME280;67485;48.816;9.930;2023-02-12T06:28:50;98791.19;;;2.69;96.22
78210;BME280;67485;48.816;9.930;2023-02-12T06:31:27;98793.84;;;2.71;95.87
78210;BME280;67485;48.816;9.930;2023-02-12T06:33:56;98798.75;;;2.63;96.84
78210;BME280;67485;48.816;9.930;2023-02-12T06:36:22;98801.09;;;2.57;97.73
78210;BME280;67485;48.816;9.930;2023-02-12T06:38:48;98800.88;;;2.51;98.10
78210;BME280;67485;48.816;9.930;2023-02-12T06:41:14;98798.97;;;2.47;98.63
78210;BME280;67485;48.816;9.930;2023-02-12T06:43:40;98794.56;;;2.44;98.64
78210;BME280;67485;48.816;9.930;2023-02-12T06:46:07;98799.97;;;2.50;99.22
78210;BME280;67485;48.816;9.930;2023-02-12T06:48:32;98803.75;;;2.58;98.93
78210;BME280;67485;48.816;9.930;2023-02-12T06:51:09;98805.69;;;2.64;99.11
78210;BME280;67485;48.816;9.930;2023-02-12T06:53:36;98809.78;;;2.59;98.70
78210;BME280;67485;48.816;9.930;2023-02-12T06:56:04;98807.81;;;2.52;99.28
78210;BME280;67485;48.816;9.930;2023-02-12T06:58:30;98813.78;;;2.49;99.60
78210;BME280;67485;48.816;9.930;2023-02-12T07:00:56;98812.00;;;2.48;99.65
78210;BME280;67485;48.816;9.930;2023-02-12T07:03:22;98808.91;;;2.58;99.83
78210;BME280;67485;48.816;9.930;2023-02-12T07:05:47;98811.69;;;2.63;100.00
78210;BME280;67485;48.816;9.930;2023-02-12T07:08:14;98815.41;;;2.71;100.00
78210;BME280;67485;48.816;9.930;2023-02-12T07:10:40;98812.78;;;2.70;100.00
78210;BME280;67485;48.816;9.930;2023-02-12T07:13:05;98819.81;;;2.74;100.00
78210;BME280;67485;48.816;9.930;2023-02-12T07:15:31;98820.00;;;2.79;100.00
78210;BME280;67485;48.816;9.930;2023-02-12T07:17:57;98815.88;;;2.84;100.00
78210;BME280;67485;48.816;9.930;2023-02-12T07:20:22;98815.59;;;2.76;100.00
78210;BME280;67485;48.816;9.930;2023-02-12T07:22:48;98827.00;;;2.81;100.00
78210;BME280;67485;48.816;9.930;2023-02-12T07:25:13;98827.78;;;2.79;100.00
78210;BME280;67485;48.816;9.930;2023-02-12T07:27:39;98823.53;;;2.81;100.00
78210;BME280;67485;48.816;9.930;2023-02-12T07:30:05;98823.03;;;2.91;100.00
78210;BME280;67485;48.816;9.930;2023-02-12T07:32:32;98820.72;;;2.99;100.00
78210;BME280;67485;48.816;9.930;2023-02-12T07:34:58;98815.59;;;3.00;100.00
78210;BME280;67485;48.816;9.930;2023-02-12T07:37:24;98815.53;;;2.99;99.65
78210;BME280;67485;48.816;9.930;2023-02-12T07:39:50;98822.59;;;3.03;99.78
78210;BME280;67485;48.816;9.930;2023-02-12T07:42:16;98827.13;;;3.08;98.46
78210;BME280;67485;48.816;9.930;2023-02-12T07:44:47;98811.66;;;3.12;98.89
78210;BME280;67485;48.816;9.930;2023-02-12T07:47:14;98816.34;;;3.22;98.39
78210;BME280;67485;48.816;9.930;2023-02-12T07:49:40;98814.94;;;3.32;97.08
78210;BME280;67485;48.816;9.930;2023-02-12T07:52:06;98821.03;;;3.32;97.23
78210;BME280;67485;48.816;9.930;2023-02-12T07:54:32;98819.16;;;3.28;97.58
78210;BME280;67485;48.816;9.930;2023-02-12T07:56:57;98822.00;;;3.36;97.80
78210;BME280;67485;48.816;9.930;2023-02-12T07:59:25;98822.78;;;3.33;97.32
78210;BME280;67485;48.816;9.930;2023-02-12T08:01:52;98817.50;;;3.30;97.88
78210;BME280;67485;48.816;9.930;2023-02-12T08:04:23;98822.16;;;3.40;97.78
78210;BME280;67485;48.816;9.930;2023-02-12T08:06:51;98817.81;;;3.39;97.76
78210;BME280;67485;48.816;9.930;2023-02-12T08:09:20;98819.69;;;3.44;97.51
78210;BME280;67485;48.816;9.930;2023-02-12T08:11:47;98816.56;;;3.54;97.23
78210;BME280;67485;48.816;9.930;2023-02-12T08:14:15;98826.16;;;3.56;97.16
78210;BME280;67485;48.816;9.930;2023-02-12T08:16:43;98822.97;;;3.65;96.17
78210;BME280;67485;48.816;9.930;2023-02-12T08:19:10;98827.13;;;3.60;96.26
78210;BME280;67485;48.816;9.930;2023-02-12T08:21:35;98831.75;;;3.69;96.36
78210;BME280;67485;48.816;9.930;2023-02-12T08:24:01;98833.72;;;3.76;95.71
78210;BME280;67485;48.816;9.930;2023-02-12T08:26:32;98827.78;;;3.80;95.32
78210;BME280;67485;48.816;9.930;2023-02-12T08:29:07;98827.94;;;3.85;95.80
78210;BME280;67485;48.816;9.930;2023-02-12T08:31:36;98831.69;;;3.93;95.49
78210;BME280;67485;48.816;9.930;2023-02-12T08:34:02;98835.31;;;3.98;95.24
78210;BME280;67485;48.816;9.930;2023-02-12T08:36:30;98833.53;;;3.97;95.25
78210;BME280;67485;48.816;9.930;2023-02-12T08:38:57;98835.19;;;3.95;95.83
78210;BME280;67485;48.816;9.930;2023-02-12T08:41:26;98830.00;;;3.95;96.06
78210;BME280;67485;48.816;9.930;2023-02-12T08:43:53;98822.78;;;4.14;95.66
78210;BME280;67485;48.816;9.930;2023-02-12T08:46:23;98833.44;;;4.23;94.89
78210;BME280;67485;48.816;9.930;2023-02-12T08:48:57;98819.81;;;4.59;94.92
78210;BME280;67485;48.816;9.930;2023-02-12T08:51:25;98817.00;;;4.82;93.44
78210;BME280;67485;48.816;9.930;2023-02-12T08:53:54;98816.31;;;4.87;91.85
78210;BME280;67485;48.816;9.930;2023-02-12T08:56:20;98822.13;;;4.79;91.34
78210;BME280;67485;48.816;9.930;2023-02-12T08:58:47;98816.69;;;4.69;91.62
78210;BME280;67485;48.816;9.930;2023-02-12T09:01:15;98819.94;;;4.62;92.00
78210;BME280;67485;48.816;9.930;2023-02-12T09:03:42;98819.81;;;4.59;92.87
78210;BME280;67485;48.816;9.930;2023-02-12T09:06:08;98818.19;;;4.63;92.72
78210;BME280;67485;48.816;9.930;2023-02-12T09:08:35;98820.91;;;4.66;92.59
78210;BME280;67485;48.816;9.930;2023-02-12T09:11:10;98819.34;;;4.73;92.29
78210;BME280;67485;48.816;9.930;2023-02-12T09:13:38;98825.47;;;4.75;92.60
78210;BME280;67485;48.816;9.930;2023-02-12T09:16:05;98821.94;;;4.73;92.68
78210;BME280;67485;48.816;9.930;2023-02-12T09:18:32;98825.72;;;4.84;92.80
78210;BME280;67485;48.816;9.930;2023-02-12T09:21:07;98818.88;;;4.86;92.30
78210;BME280;67485;48.816;9.930;2023-02-12T09:23:33;98812.97;;;4.93;92.36
78210;BME280;67485;48.816;9.930;2023-02-12T09:25:59;98815.69;;;4.96;92.15
78210;BME280;67485;48.816;9.930;2023-02-12T09:28:25;98823.44;;;4.95;92.95
78210;BME280;67485;48.816;9.930;2023-02-12T09:30:50;98821.56;;;4.91;92.93
78210;BME280;67485;48.816;9.930;2023-02-12T09:33:16;98820.91;;;4.98;92.95
78210;BME280;67485;48.816;9.930;2023-02-12T09:35:42;98819.44;;;5.08;92.46
78210;BME280;67485;48.816;9.930;2023-02-12T09:38:08;98818.66;;;5.10;92.44
78210;BME280;67485;48.816;9.930;2023-02-12T09:43:32;98816.34;;;5.21;92.88
78210;BME280;67485;48.816;9.930;2023-02-12T09:51:06;98815.41;;;5.51;91.09
78210;BME280;67485;48.816;9.930;2023-02-12T09:53:36;98813.63;;;5.50;91.29
78210;BME280;67485;48.816;9.930;2023-02-12T09:56:10;98822.06;;;5.40;90.69
78210;BME280;67485;48.816;9.930;2023-02-12T09:58:42;98829.41;;;5.56;91.31
78210;BME280;67485;48.816;9.930;2023-02-12T10:01:12;98826.88;;;5.61;90.10
78210;BME280;67485;48.816;9.930;2023-02-12T10:03:38;98821.94;;;5.70;89.60
78210;BME280;67485;48.816;9.930;2023-02-12T10:06:06;98826.50;;;5.79;88.65
78210;BME280;67485;48.816;9.930;2023-02-12T10:11:25;98831.06;;;5.89;88.79
78210;BME280;67485;48.816;9.930;2023-02-12T10:20:26;98836.44;;;5.97;86.56
78210;BME280;67485;48.816;9.930;2023-02-12T10:25:43;98836.06;;;6.15;86.74
78210;BME280;67485;48.816;9.930;2023-02-12T10:28:14;98836.25;;;6.24;85.47
78210;BME280;67485;48.816;9.930;2023-02-12T10:36:01;98837.19;;;6.26;85.33
78210;BME280;67485;48.816;9.930;2023-02-12T10:38:33;98840.59;;;6.24;84.92
78210;BME280;67485;48.816;9.930;2023-02-12T10:41:00;98836.44;;;6.32;85.50
78210;BME280;67485;48.816;9.930;2023-02-12T10:43:27;98833.00;;;6.35;84.64
78210;BME280;67485;48.816;9.930;2023-02-12T10:45:53;98840.63;;;6.25;83.93
78210;BME280;67485;48.816;9.930;2023-02-12T10:48:37;98835.59;;;6.33;84.20
78210;BME280;67485;48.816;9.930;2023-02-12T10:53:36;98826.41;;;6.49;83.84
78210;BME280;67485;48.816;9.930;2023-02-12T10:58:31;98829.94;;;6.51;83.98
78210;BME280;67485;48.816;9.930;2023-02-12T11:00:58;98822.41;;;6.65;83.17
78210;BME280;67485;48.816;9.930;2023-02-12T11:03:32;98828.47;;;6.65;83.43
78210;BME280;67485;48.816;9.930;2023-02-12T11:06:13;98824.25;;;6.71;82.71
78210;BME280;67485;48.816;9.930;2023-02-12T11:08:40;98814.91;;;6.80;82.45
78210;BME280;67485;48.816;9.930;2023-02-12T11:11:19;98804.56;;;6.85;81.79
78210;BME280;67485;48.816;9.930;2023-02-12T11:16:36;98803.53;;;6.77;81.50
78210;BME280;67485;48.816;9.930;2023-02-12T11:19:07;98810.72;;;6.89;81.12
78210;BME280;67485;48.816;9.930;2023-02-12T11:21:34;98796.66;;;6.80;81.19
78210;BME280;67485;48.816;9.930;2023-02-12T11:24:29;98804.44;;;6.79;80.92
78210;BME280;67485;48.816;9.930;2023-02-12T11:29:40;98795.34;;;7.01;80.36
78210;BME280;67485;48.816;9.930;2023-02-12T11:32:08;98793.69;;;7.06;80.54
78210;BME280;67485;48.816;9.930;2023-02-12T11:34:37;98796.19;;;7.02;81.22
78210;BME280;67485;48.816;9.930;2023-02-12T11:37:02;98796.53;;;7.19;79.82
78210;BME280;67485;48.816;9.930;2023-02-12T11:39:33;98801.25;;;6.92;80.66
78210;BME280;67485;48.816;9.930;2023-02-12T11:42:03;98797.72;;;6.90;80.56
78210;BME280;67485;48.816;9.930;2023-02-12T11:44:35;98795.84;;;6.85;80.68
78210;BME280;67485;48.816;9.930;2023-02-12T11:47:04;98798.50;;;6.86;81.09
78210;BME280;67485;48.816;9.930;2023-02-12T11:49:38;98793.06;;;6.74;81.26
78210;BME280;67485;48.816;9.930;2023-02-12T11:52:06;98797.53;;;6.81;81.26
78210;BME280;67485;48.816;9.930;2023-02-12T11:54:45;98793.59;;;7.02;80.67
78210;BME280;67485;48.816;9.930;2023-02-12T11:57:34;98791.22;;;7.14;80.52
78210;BME280;67485;48.816;9.930;2023-02-12T12:00:04;98788.53;;;7.09;79.87
78210;BME280;67485;48.816;9.930;2023-02-12T12:02:36;98787.81;;;7.18;79.64
78210;BME280;67485;48.816;9.930;2023-02-12T12:05:26;98780.28;;;7.34;78.48
78210;BME280;67485;48.816;9.930;2023-02-12T12:07:57;98786.34;;;7.33;78.09
78210;BME280;67485;48.816;9.930;2023-02-12T12:10:35;98793.31;;;7.34;78.13
78210;BME280;67485;48.816;9.930;2023-02-12T12:13:14;98787.66;;;7.59;78.15
78210;BME280;67485;48.816;9.930;2023-02-12T12:15:51;98789.28;;;7.51;77.52
78210;BME280;67485;48.816;9.930;2023-02-12T12:18:45;98784.31;;;7.68;77.11
78210;BME280;67485;48.816;9.930;2023-02-12T12:21:40;98787.53;;;7.52;77.57
78210;BME280;67485;48.816;9.930;2023-02-12T12:24:13;98788.19;;;7.40;78.29
78210;BME280;67485;48.816;9.930;2023-02-12T12:26:48;98792.66;;;7.47;78.33
78210;BME280;67485;48.816;9.930;2023-02-12T12:29:47;98782.81;;;7.30;79.18
78210;BME280;67485;48.816;9.930;2023-02-12T12:32:18;98781.25;;;7.39;78.84
78210;BME280;67485;48.816;9.930;2023-02-12T12:34:46;98777.94;;;7.49;78.57
78210;BME280;67485;48.816;9.930;2023-02-12T12:37:45;98780.31;;;7.35;78.45
78210;BME280;67485;48.816;9.930;2023-02-12T12:40:30;98778.56;;;7.36;79.15
78210;BME280;67485;48.816;9.930;2023-02-12T12:43:08;98776.28;;;7.54;77.98
78210;BME280;67485;48.816;9.930;2023-02-12T12:51:31;98766.72;;;8.11;75.36
78210;BME280;67485;48.816;9.930;2023-02-12T13:07:23;98746.38;;;8.52;72.74
78210;BME280;67485;48.816;9.930;2023-02-12T13:12:45;98740.66;;;8.84;72.31
78210;BME280;67485;48.816;9.930;2023-02-12T13:15:32;98739.53;;;8.62;72.27
78210;BME280;67485;48.816;9.930;2023-02-12T13:18:23;98744.94;;;8.77;72.72
78210;BME280;67485;48.816;9.930;2023-02-12T13:23:40;98740.25;;;8.51;72.37
78210;BME280;67485;48.816;9.930;2023-02-12T13:29:11;98747.13;;;8.44;73.20
78210;BME280;67485;48.816;9.930;2023-02-12T13:31:44;98735.31;;;8.73;72.84
78210;BME280;67485;48.816;9.930;2023-02-12T13:34:13;98732.06;;;8.94;72.98
78210;BME280;67485;48.816;9.930;2023-02-12T13:36:42;98729.38;;;8.86;71.98
78210;BME280;67485;48.816;9.930;2023-02-12T13:41:39;98726.16;;;8.38;73.09
78210;BME280;67485;48.816;9.930;2023-02-12T13:44:19;98727.56;;;8.15;73.70
78210;BME280;67485;48.816;9.930;2023-02-12T13:47:05;98730.09;;;8.08;74.84
78210;BME280;67485;48.816;9.930;2023-02-12T13:49:38;98718.88;;;8.14;74.44
78210;BME280;67485;48.816;9.930;2023-02-12T13:52:23;98723.53;;;7.74;75.07
78210;BME280;67485;48.816;9.930;2023-02-12T13:57:37;98721.44;;;8.11;74.95
78210;BME280;67485;48.816;9.930;2023-02-12T14:00:03;98720.56;;;8.10;74.65
78210;BME280;67485;48.816;9.930;2023-02-12T14:08:00;98727.56;;;7.55;75.40
78210;BME280;67485;48.816;9.930;2023-02-12T14:10:37;98718.03;;;7.55;75.72
78210;BME280;67485;48.816;9.930;2023-02-12T14:15:42;98715.59;;;7.68;75.50
78210;BME280;67485;48.816;9.930;2023-02-12T14:20:47;98713.75;;;7.60;75.50
78210;BME280;67485;48.816;9.930;2023-02-12T14:23:21;98712.09;;;7.66;75.01
78210;BME280;67485;48.816;9.930;2023-02-12T14:33:44;98698.28;;;7.74;75.03
78210;BME280;67485;48.816;9.930;2023-02-12T14:39:29;98699.50;;;7.98;74.26
78210;BME280;67485;48.816;9.930;2023-02-12T14:44:37;98695.97;;;7.94;74.06
78210;BME280;67485;48.816;9.930;2023-02-12T14:47:10;98687.53;;;8.14;73.14
78210;BME280;67485;48.816;9.930;2023-02-12T14:49:43;98687.56;;;8.17;73.38
78210;BME280;67485;48.816;9.930;2023-02-12T14:54:57;98690.00;;;8.05;73.44
78210;BME280;67485;48.816;9.930;2023-02-12T14:57:35;98684.78;;;8.05;73.22
78210;BME280;67485;48.816;9.930;2023-02-12T15:03:12;98676.31;;;8.21;73.18
78210;BME280;67485;48.816;9.930;2023-02-12T15:05:51;98684.09;;;8.17;73.41
78210;BME280;67485;48.816;9.930;2023-02-12T15:11:11;98670.81;;;8.00;73.34
78210;BME280;67485;48.816;9.930;2023-02-12T15:13:53;98674.34;;;8.05;73.68
78210;BME280;67485;48.816;9.930;2023-02-12T15:21:56;98673.38;;;7.95;73.67
78210;BME280;67485;48.816;9.930;2023-02-12T15:24:24;98665.47;;;7.90;74.23
78210;BME280;67485;48.816;9.930;2023-02-12T15:26:52;98667.22;;;7.91;73.90
78210;BME280;67485;48.816;9.930;2023-02-12T15:29:23;98670.69;;;7.90;73.99
78210;BME280;67485;48.816;9.930;2023-02-12T15:31:53;98667.97;;;7.83;74.52
78210;BME280;67485;48.816;9.930;2023-02-12T15:34:21;98670.44;;;7.75;74.78
78210;BME280;67485;48.816;9.930;2023-02-12T15:36:48;98673.88;;;7.71;74.83
78210;BME280;67485;48.816;9.930;2023-02-12T15:39:18;98670.41;;;7.69;75.60
78210;BME280;67485;48.816;9.930;2023-02-12T15:41:48;98672.00;;;7.60;75.76
78210;BME280;67485;48.816;9.930;2023-02-12T15:44:29;98666.66;;;7.51;75.89
78210;BME280;67485;48.816;9.930;2023-02-12T15:47:13;98671.88;;;7.51;75.99
78210;BME280;67485;48.816;9.930;2023-02-12T15:49:41;98669.25;;;7.51;76.23
78210;BME280;67485;48.816;9.930;2023-02-12T15:52:19;98664.94;;;7.53;75.98
78210;BME280;67485;48.816;9.930;2023-02-12T15:54:47;98667.50;;;7.50;76.05
78210;BME280;67485;48.816;9.930;2023-02-12T15:57:20;98663.88;;;7.40;75.98